sensor_id;sensor_type;location;lat;lon;timestamp;pressure;altitude;pressure_sealevel;temperature;humidity
818;BME280;391;51.052;6.954;2022-10-16T00:00:27;100591.50;;;15.47;86.61
818;BME280;391;51.052;6.954;2022-10-16T00:02:31;100595.84;;;15.43;87.12
818;BME280;391;51.052;6.954;2022-10-16T00:04:35;100595.78;;;15.35;87.28
818;BME280;391;51.052;6.954;2022-10-16T00:06:38;100593.97;;;15.27;87.25
818;BME280;391;51.052;6.954;2022-10-16T00:08:42;100608.00;;;15.30;87.55
818;BME280;391;51.052;6.954;2022-10-16T00:10:46;100599.22;;;15.28;87.83
818;BME280;391;51.052;6.954;2022-10-16T00:12:49;100608.91;;;15.32;87.97
818;BME280;391;51.052;6.954;2022-10-16T00:14:54;100607.09;;;15.28;87.54
818;BME280;391;51.052;6.954;2022-10-16T00:16:57;100609.72;;;15.24;87.75
818;BME280;391;51.052;6.954;2022-10-16T00:19:00;100614.03;;;15.17;87.86
818;BME280;391;51.052;6.954;2022-10-16T00:21:06;100616.63;;;15.16;88.49
818;BME280;391;51.052;6.954;2022-10-16T00:23:10;100629.78;;;15.16;88.26
818;BME280;391;51.052;6.954;2022-10-16T00:25:13;100621.06;;;15.20;88.23
818;BME280;391;51.052;6.954;2022-10-16T00:27:16;100631.59;;;15.23;87.68
818;BME280;391;51.052;6.954;2022-10-16T00:29:20;100634.19;;;15.20;87.93
818;BME280;391;51.052;6.954;2022-10-16T00:31:24;100618.47;;;15.26;88.06
818;BME280;391;51.052;6.954;2022-10-16T00:33:28;100619.38;;;15.29;87.80
818;BME280;391;51.052;6.954;2022-10-16T00:35:31;100615.03;;;15.33;87.36
818;BME280;391;51.052;6.954;2022-10-16T00:37:35;100612.38;;;15.30;86.95
818;BME280;391;51.052;6.954;2022-10-16T00:39:38;100612.41;;;15.31;87.25
818;BME280;391;51.052;6.954;2022-10-16T00:41:41;100604.56;;;15.34;87.01
818;BME280;391;51.052;6.954;2022-10-16T00:43:46;100614.16;;;15.31;87.36
818;BME280;391;51.052;6.954;2022-10-16T00:45:49;100612.34;;;15.28;86.79
818;BME280;391;51.052;6.954;2022-10-16T00:47:55;100606.25;;;15.29;86.92
818;BME280;391;51.052;6.954;2022-10-16T00:50:02;100607.13;;;15.27;86.88
818;BME280;391;51.052;6.954;2022-10-16T00:52:10;100610.66;;;15.30;86.91
818;BME280;391;51.052;6.954;2022-10-16T00:54:16;100606.31;;;15.37;87.06
818;BME280;391;51.052;6.954;2022-10-16T00:56:20;100613.28;;;15.35;86.51
818;BME280;391;51.052;6.954;2022-10-16T00:58:24;100601.03;;;15.34;86.47
818;BME280;391;51.052;6.954;2022-10-16T01:00:27;100601.03;;;15.31;86.50
818;BME280;391;51.052;6.954;2022-10-16T01:02:31;100598.38;;;15.28;86.57
818;BME280;391;51.052;6.954;2022-10-16T01:04:38;100603.59;;;15.25;86.70
818;BME280;391;51.052;6.954;2022-10-16T01:06:47;100593.06;;;15.23;86.73
818;BME280;391;51.052;6.954;2022-10-16T01:09:11;100610.56;;;15.18;86.63
818;BME280;391;51.052;6.954;2022-10-16T01:11:22;100620.16;;;15.19;86.83
818;BME280;391;51.052;6.954;2022-10-16T01:13:33;100614.91;;;15.19;86.91
818;BME280;391;51.052;6.954;2022-10-16T01:15:43;100610.53;;;15.17;87.27
818;BME280;391;51.052;6.954;2022-10-16T01:17:57;100608.81;;;15.20;87.09
818;BME280;391;51.052;6.954;2022-10-16T01:20:10;100607.03;;;15.19;86.89
818;BME280;391;51.052;6.954;2022-10-16T01:22:14;100625.38;;;15.12;87.34
818;BME280;391;51.052;6.954;2022-10-16T01:24:27;100632.41;;;15.17;87.55
818;BME280;391;51.052;6.954;2022-10-16T01:26:59;100624.50;;;15.11;87.72
818;BME280;391;51.052;6.954;2022-10-16T01:29:06;100633.25;;;15.12;87.76
818;BME280;391;51.052;6.954;2022-10-16T01:31:11;100627.06;;;15.05;88.11
818;BME280;391;51.052;6.954;2022-10-16T01:33:19;100624.38;;;14.98;88.25
818;BME280;391;51.052;6.954;2022-10-16T01:35:27;100610.34;;;14.97;88.39
818;BME280;391;51.052;6.954;2022-10-16T01:37:35;100598.09;;;14.95;88.38
818;BME280;391;51.052;6.954;2022-10-16T01:39:42;100611.25;;;15.01;88.14
818;BME280;391;51.052;6.954;2022-10-16T01:41:51;100625.31;;;15.03;87.93
818;BME280;391;51.052;6.954;2022-10-16T01:44:02;100640.16;;;15.01;87.93
818;BME280;391;51.052;6.954;2022-10-16T01:46:07;100626.13;;;14.99;88.12
818;BME280;391;51.052;6.954;2022-10-16T01:48:13;100625.31;;;15.03;87.90
818;BME280;391;51.052;6.954;2022-10-16T01:50:19;100626.16;;;15.02;87.87
818;BME280;391;51.052;6.954;2022-10-16T01:52:25;100631.38;;;14.99;88.02
818;BME280;391;51.052;6.954;2022-10-16T01:54:31;100633.13;;;15.00;88.13
818;BME280;391;51.052;6.954;2022-10-16T01:56:38;100636.66;;;15.02;88.51
818;BME280;391;51.052;6.954;2022-10-16T01:58:46;100632.28;;;14.99;88.01
818;BME280;391;51.052;6.954;2022-10-16T02:00:53;100636.59;;;14.96;88.20
818;BME280;391;51.052;6.954;2022-10-16T02:03:01;100641.00;;;14.98;88.01
818;BME280;391;51.052;6.954;2022-10-16T02:05:11;100636.59;;;14.96;88.10
818;BME280;391;51.052;6.954;2022-10-16T02:07:18;100636.59;;;14.93;88.15
818;BME280;391;51.052;6.954;2022-10-16T02:09:21;100635.69;;;14.94;88.00
818;BME280;391;51.052;6.954;2022-10-16T02:11:24;100634.84;;;14.93;87.84
818;BME280;391;51.052;6.954;2022-10-16T02:13:31;100638.34;;;14.95;87.99
818;BME280;391;51.052;6.954;2022-10-16T02:15:36;100636.59;;;14.94;87.91
818;BME280;391;51.052;6.954;2022-10-16T02:17:41;100636.59;;;14.94;88.08
818;BME280;391;51.052;6.954;2022-10-16T02:19:45;100646.22;;;14.95;88.07
818;BME280;391;51.052;6.954;2022-10-16T02:21:54;100651.44;;;14.92;88.10
818;BME280;391;51.052;6.954;2022-10-16T02:24:02;100649.72;;;14.93;88.05
818;BME280;391;51.052;6.954;2022-10-16T02:26:09;100647.03;;;14.88;88.14
818;BME280;391;51.052;6.954;2022-10-16T02:28:17;100642.63;;;14.86;88.19
818;BME280;391;51.052;6.954;2022-10-16T02:30:27;100647.06;;;14.91;88.22
818;BME280;391;51.052;6.954;2022-10-16T02:32:32;100648.00;;;14.96;88.37
818;BME280;391;51.052;6.954;2022-10-16T02:34:37;100651.53;;;15.01;87.85
818;BME280;391;51.052;6.954;2022-10-16T02:36:41;100656.13;;;15.22;87.14
818;BME280;391;51.052;6.954;2022-10-16T02:38:45;100660.41;;;15.12;87.04
818;BME280;391;51.052;6.954;2022-10-16T02:40:49;100657.69;;;15.06;87.08
818;BME280;391;51.052;6.954;2022-10-16T02:42:52;100652.41;;;15.02;87.16
818;BME280;391;51.052;6.954;2022-10-16T02:44:56;100653.28;;;15.01;87.53
818;BME280;391;51.052;6.954;2022-10-16T02:46:59;100652.34;;;14.94;87.63
818;BME280;391;51.052;6.954;2022-10-16T02:49:02;100647.06;;;14.90;87.55
818;BME280;391;51.052;6.954;2022-10-16T02:51:07;100641.84;;;14.93;87.59
818;BME280;391;51.052;6.954;2022-10-16T02:53:10;100640.94;;;14.94;87.62
818;BME280;391;51.052;6.954;2022-10-16T02:55:13;100643.53;;;14.91;87.19
818;BME280;391;51.052;6.954;2022-10-16T02:57:17;100650.56;;;14.92;87.22
818;BME280;391;51.052;6.954;2022-10-16T02:59:20;100649.75;;;15.00;86.92
818;BME280;391;51.052;6.954;2022-10-16T03:01:23;100649.81;;;15.05;86.36
818;BME280;391;51.052;6.954;2022-10-16T03:03:26;100653.31;;;15.07;85.80
818;BME280;391;51.052;6.954;2022-10-16T03:05:29;100646.31;;;15.04;85.26
818;BME280;391;51.052;6.954;2022-10-16T03:07:33;100655.13;;;15.11;85.21
818;BME280;391;51.052;6.954;2022-10-16T03:09:36;100665.56;;;15.06;84.72
818;BME280;391;51.052;6.954;2022-10-16T03:11:39;100652.44;;;15.06;84.71
818;BME280;391;51.052;6.954;2022-10-16T03:13:42;100642.88;;;15.11;84.57
818;BME280;391;51.052;6.954;2022-10-16T03:15:45;100645.47;;;15.08;84.34
818;BME280;391;51.052;6.954;2022-10-16T03:17:49;100635.84;;;15.09;84.08
818;BME280;391;51.052;6.954;2022-10-16T03:19:52;100627.97;;;15.09;83.76
818;BME280;391;51.052;6.954;2022-10-16T03:21:55;100625.34;;;15.06;83.57
818;BME280;391;51.052;6.954;2022-10-16T03:24:00;100625.31;;;15.07;83.70
818;BME280;391;51.052;6.954;2022-10-16T03:26:03;100624.47;;;15.10;83.82
818;BME280;391;51.052;6.954;2022-10-16T03:28:06;100634.09;;;15.08;83.64
818;BME280;391;51.052;6.954;2022-10-16T03:30:10;100642.00;;;15.11;83.19
818;BME280;391;51.052;6.954;2022-10-16T03:32:13;100648.13;;;15.11;83.03
818;BME280;391;51.052;6.954;2022-10-16T03:34:16;100635.88;;;15.12;82.92
818;BME280;391;51.052;6.954;2022-10-16T03:36:19;100642.03;;;15.14;82.71
818;BME280;391;51.052;6.954;2022-10-16T03:38:22;100649.94;;;15.15;82.29
818;BME280;391;51.052;6.954;2022-10-16T03:40:27;100654.25;;;15.10;81.92
818;BME280;391;51.052;6.954;2022-10-16T03:42:30;100653.34;;;15.05;82.15
818;BME280;391;51.052;6.954;2022-10-16T03:44:33;100644.66;;;15.14;82.13
818;BME280;391;51.052;6.954;2022-10-16T03:46:36;100650.75;;;15.11;81.81
818;BME280;391;51.052;6.954;2022-10-16T03:48:39;100658.63;;;15.11;81.78
818;BME280;391;51.052;6.954;2022-10-16T03:50:42;100650.72;;;15.08;82.03
818;BME280;391;51.052;6.954;2022-10-16T03:52:45;100648.06;;;15.07;82.46
818;BME280;391;51.052;6.954;2022-10-16T03:54:48;100655.09;;;15.09;82.30
818;BME280;391;51.052;6.954;2022-10-16T03:56:53;100673.47;;;15.09;83.12
818;BME280;391;51.052;6.954;2022-10-16T03:58:56;100685.69;;;15.04;83.97
818;BME280;391;51.052;6.954;2022-10-16T04:00:59;100670.75;;;14.96;85.08
818;BME280;391;51.052;6.954;2022-10-16T04:03:02;100674.13;;;14.87;85.78
818;BME280;391;51.052;6.954;2022-10-16T04:05:05;100674.91;;;14.74;86.78
818;BME280;391;51.052;6.954;2022-10-16T04:07:08;100680.91;;;14.64;87.89
818;BME280;391;51.052;6.954;2022-10-16T04:09:12;100672.13;;;14.65;88.22
818;BME280;391;51.052;6.954;2022-10-16T04:11:15;100688.81;;;14.68;88.34
818;BME280;391;51.052;6.954;2022-10-16T04:13:19;100691.44;;;14.68;88.56
818;BME280;391;51.052;6.954;2022-10-16T04:15:22;100688.75;;;14.61;88.90
818;BME280;391;51.052;6.954;2022-10-16T04:17:25;100686.13;;;14.62;89.24
818;BME280;391;51.052;6.954;2022-10-16T04:19:29;100678.19;;;14.56;89.96
818;BME280;391;51.052;6.954;2022-10-16T04:21:32;100686.91;;;14.55;90.09
818;BME280;391;51.052;6.954;2022-10-16T04:23:35;100686.00;;;14.52;90.32
818;BME280;391;51.052;6.954;2022-10-16T04:25:38;100693.00;;;14.51;90.69
818;BME280;391;51.052;6.954;2022-10-16T04:27:41;100695.66;;;14.56;90.28
818;BME280;391;51.052;6.954;2022-10-16T04:29:48;100694.72;;;14.51;89.75
818;BME280;391;51.052;6.954;2022-10-16T04:31:51;100708.75;;;14.51;89.53
818;BME280;391;51.052;6.954;2022-10-16T04:33:54;100696.50;;;14.53;89.44
818;BME280;391;51.052;6.954;2022-10-16T04:35:57;100649.94;;;14.34;89.34
818;BME280;391;51.052;6.954;2022-10-16T04:38:01;100696.72;;;14.70;89.27
818;BME280;391;51.052;6.954;2022-10-16T04:40:04;100700.25;;;14.75;88.60
818;BME280;391;51.052;6.954;2022-10-16T04:42:07;100696.81;;;14.79;88.89
818;BME280;391;51.052;6.954;2022-10-16T04:44:10;100695.97;;;14.81;88.23
818;BME280;391;51.052;6.954;2022-10-16T04:46:15;100703.84;;;14.81;87.30
818;BME280;391;51.052;6.954;2022-10-16T04:48:18;100708.13;;;14.75;86.40
818;BME280;391;51.052;6.954;2022-10-16T04:50:21;100701.97;;;14.71;86.50
818;BME280;391;51.052;6.954;2022-10-16T04:52:39;100697.59;;;14.70;86.08
818;BME280;391;51.052;6.954;2022-10-16T04:54:42;100708.13;;;14.73;86.47
818;BME280;391;51.052;6.954;2022-10-16T04:56:46;100717.78;;;14.76;86.43
818;BME280;391;51.052;6.954;2022-10-16T04:58:51;100716.06;;;14.79;86.02
818;BME280;391;51.052;6.954;2022-10-16T05:00:54;100726.56;;;14.79;85.70
818;BME280;391;51.052;6.954;2022-10-16T05:02:59;100727.50;;;14.84;85.41
818;BME280;391;51.052;6.954;2022-10-16T05:05:02;100723.91;;;14.76;85.50
818;BME280;391;51.052;6.954;2022-10-16T05:07:06;100723.91;;;14.76;85.54
818;BME280;391;51.052;6.954;2022-10-16T05:09:09;100732.63;;;14.75;85.78
818;BME280;391;51.052;6.954;2022-10-16T05:11:12;100732.69;;;14.80;85.74
818;BME280;391;51.052;6.954;2022-10-16T05:13:15;100736.16;;;14.77;85.49
818;BME280;391;51.052;6.954;2022-10-16T05:15:18;100736.16;;;14.77;85.24
818;BME280;391;51.052;6.954;2022-10-16T05:17:21;100737.88;;;14.74;85.70
818;BME280;391;51.052;6.954;2022-10-16T05:19:26;100747.53;;;14.78;85.28
818;BME280;391;51.052;6.954;2022-10-16T05:21:30;100741.41;;;14.77;85.25
818;BME280;391;51.052;6.954;2022-10-16T05:23:33;100742.25;;;14.73;85.62
818;BME280;391;51.052;6.954;2022-10-16T05:25:36;100751.84;;;14.74;85.69
818;BME280;391;51.052;6.954;2022-10-16T05:27:39;100742.25;;;14.75;85.54
818;BME280;391;51.052;6.954;2022-10-16T05:29:43;100744.06;;;14.79;85.59
818;BME280;391;51.052;6.954;2022-10-16T05:31:46;100758.06;;;14.81;85.31
818;BME280;391;51.052;6.954;2022-10-16T05:33:52;100757.25;;;14.85;85.45
818;BME280;391;51.052;6.954;2022-10-16T05:35:56;100757.28;;;14.88;85.28
818;BME280;391;51.052;6.954;2022-10-16T05:37:59;100758.22;;;14.92;84.96
818;BME280;391;51.052;6.954;2022-10-16T05:40:02;100752.88;;;14.86;85.37
818;BME280;391;51.052;6.954;2022-10-16T05:42:06;100750.22;;;14.82;85.61
818;BME280;391;51.052;6.954;2022-10-16T05:44:09;100761.59;;;14.81;85.89
818;BME280;391;51.052;6.954;2022-10-16T05:46:12;100765.06;;;14.79;86.20
818;BME280;391;51.052;6.954;2022-10-16T05:48:16;100762.38;;;14.74;86.38
818;BME280;391;51.052;6.954;2022-10-16T05:50:19;100766.72;;;14.72;86.85
818;BME280;391;51.052;6.954;2022-10-16T05:52:23;100771.91;;;14.68;87.33
818;BME280;391;51.052;6.954;2022-10-16T05:54:26;100767.50;;;14.65;87.62
818;BME280;391;51.052;6.954;2022-10-16T05:56:29;100768.28;;;14.58;88.15
818;BME280;391;51.052;6.954;2022-10-16T05:58:34;100781.31;;;14.52;88.44
818;BME280;391;51.052;6.954;2022-10-16T06:00:38;100779.56;;;14.51;88.61
818;BME280;391;51.052;6.954;2022-10-16T06:02:41;100784.88;;;14.54;88.98
818;BME280;391;51.052;6.954;2022-10-16T06:04:44;100788.38;;;14.56;88.75
818;BME280;391;51.052;6.954;2022-10-16T06:06:47;100787.56;;;14.60;88.41
818;BME280;391;51.052;6.954;2022-10-16T06:08:52;100799.03;;;14.68;88.28
818;BME280;391;51.052;6.954;2022-10-16T06:11:02;100785.09;;;14.72;88.38
818;BME280;391;51.052;6.954;2022-10-16T06:13:05;100801.81;;;14.79;88.33
818;BME280;391;51.052;6.954;2022-10-16T06:15:08;100800.06;;;14.79;87.93
818;BME280;391;51.052;6.954;2022-10-16T06:17:11;100802.66;;;14.78;88.11
818;BME280;391;51.052;6.954;2022-10-16T06:19:14;100807.00;;;14.76;88.01
818;BME280;391;51.052;6.954;2022-10-16T06:21:18;100813.16;;;14.78;88.28
818;BME280;391;51.052;6.954;2022-10-16T06:23:22;100807.06;;;14.79;88.31
818;BME280;391;51.052;6.954;2022-10-16T06:25:26;100807.03;;;14.77;88.15
818;BME280;391;51.052;6.954;2022-10-16T06:27:29;100808.72;;;14.72;88.11
818;BME280;391;51.052;6.954;2022-10-16T06:29:33;100815.75;;;14.75;88.24
818;BME280;391;51.052;6.954;2022-10-16T06:31:36;100808.78;;;14.77;88.47
818;BME280;391;51.052;6.954;2022-10-16T06:33:39;100807.06;;;14.79;88.17
818;BME280;391;51.052;6.954;2022-10-16T06:35:42;100807.94;;;14.79;88.85
818;BME280;391;51.052;6.954;2022-10-16T06:37:45;100806.28;;;14.88;88.73
818;BME280;391;51.052;6.954;2022-10-16T06:39:48;100810.66;;;14.87;88.43
818;BME280;391;51.052;6.954;2022-10-16T06:41:53;100827.31;;;14.89;88.50
818;BME280;391;51.052;6.954;2022-10-16T06:43:59;100834.34;;;14.92;88.60
818;BME280;391;51.052;6.954;2022-10-16T06:46:02;100839.69;;;14.99;88.34
818;BME280;391;51.052;6.954;2022-10-16T06:48:06;100843.25;;;15.03;88.54
818;BME280;391;51.052;6.954;2022-10-16T06:50:09;100840.66;;;15.06;88.63
818;BME280;391;51.052;6.954;2022-10-16T06:52:12;100843.31;;;15.09;88.43
818;BME280;391;51.052;6.954;2022-10-16T06:54:15;100855.56;;;15.10;88.60
818;BME280;391;51.052;6.954;2022-10-16T06:56:20;100860.03;;;15.17;88.16
818;BME280;391;51.052;6.954;2022-10-16T06:58:25;100866.25;;;15.22;87.97
818;BME280;391;51.052;6.954;2022-10-16T07:00:28;100866.25;;;15.23;88.20
818;BME280;391;51.052;6.954;2022-10-16T07:02:31;100861.88;;;15.24;88.09
818;BME280;391;51.052;6.954;2022-10-16T07:04:35;100873.31;;;15.27;88.05
818;BME280;391;51.052;6.954;2022-10-16T07:06:38;100866.31;;;15.28;87.92
818;BME280;391;51.052;6.954;2022-10-16T07:08:43;100876.81;;;15.28;88.20
818;BME280;391;51.052;6.954;2022-10-16T07:10:47;100876.91;;;15.35;88.51
818;BME280;391;51.052;6.954;2022-10-16T07:12:50;100880.47;;;15.42;87.96
818;BME280;391;51.052;6.954;2022-10-16T07:14:54;100881.41;;;15.46;87.82
818;BME280;391;51.052;6.954;2022-10-16T07:16:57;100882.28;;;15.46;87.52
818;BME280;391;51.052;6.954;2022-10-16T07:19:01;100887.50;;;15.43;87.63
818;BME280;391;51.052;6.954;2022-10-16T07:21:05;100896.25;;;15.42;88.06
818;BME280;391;51.052;6.954;2022-10-16T07:23:08;100898.16;;;15.51;87.80
818;BME280;391;51.052;6.954;2022-10-16T07:25:11;100902.59;;;15.56;87.56
818;BME280;391;51.052;6.954;2022-10-16T07:27:14;100910.50;;;15.61;87.47
818;BME280;391;51.052;6.954;2022-10-16T07:29:19;100922.72;;;15.57;86.90
818;BME280;391;51.052;6.954;2022-10-16T07:31:24;100928.03;;;15.59;86.98
818;BME280;391;51.052;6.954;2022-10-16T07:33:27;100925.41;;;15.62;86.59
818;BME280;391;51.052;6.954;2022-10-16T07:35:30;100926.25;;;15.58;86.48
818;BME280;391;51.052;6.954;2022-10-16T07:37:33;100929.81;;;15.64;86.57
818;BME280;391;51.052;6.954;2022-10-16T07:39:36;100924.53;;;15.61;85.87
818;BME280;391;51.052;6.954;2022-10-16T07:41:39;100932.47;;;15.66;85.83
818;BME280;391;51.052;6.954;2022-10-16T07:43:45;100929.06;;;15.73;85.95
818;BME280;391;51.052;6.954;2022-10-16T07:45:48;100936.06;;;15.74;85.57
818;BME280;391;51.052;6.954;2022-10-16T07:47:55;100934.31;;;15.73;85.31
818;BME280;391;51.052;6.954;2022-10-16T07:50:01;100938.69;;;15.72;85.17
818;BME280;391;51.052;6.954;2022-10-16T07:52:04;100939.56;;;15.71;85.26
818;BME280;391;51.052;6.954;2022-10-16T07:54:07;100943.88;;;15.68;85.21
818;BME280;391;51.052;6.954;2022-10-16T07:56:11;100947.38;;;15.67;85.57
818;BME280;391;51.052;6.954;2022-10-16T07:58:14;100952.69;;;15.71;85.90
818;BME280;391;51.052;6.954;2022-10-16T08:00:17;100958.91;;;15.78;86.18
818;BME280;391;51.052;6.954;2022-10-16T08:02:20;100958.09;;;15.82;85.79
818;BME280;391;51.052;6.954;2022-10-16T08:04:25;100969.47;;;15.81;85.82
818;BME280;391;51.052;6.954;2022-10-16T08:06:29;100976.53;;;15.86;85.46
818;BME280;391;51.052;6.954;2022-10-16T08:08:37;100979.16;;;15.85;85.27
818;BME280;391;51.052;6.954;2022-10-16T08:10:40;100975.66;;;15.87;85.40
818;BME280;391;51.052;6.954;2022-10-16T08:12:43;100973.16;;;16.00;84.72
818;BME280;391;51.052;6.954;2022-10-16T08:14:46;100983.69;;;16.00;83.98
818;BME280;391;51.052;6.954;2022-10-16T08:16:50;100983.72;;;16.03;83.49
818;BME280;391;51.052;6.954;2022-10-16T08:18:53;100988.13;;;16.04;83.56
818;BME280;391;51.052;6.954;2022-10-16T08:20:57;100987.31;;;16.12;83.24
818;BME280;391;51.052;6.954;2022-10-16T08:23:01;100991.78;;;16.19;82.97
818;BME280;391;51.052;6.954;2022-10-16T08:25:05;100991.75;;;16.18;82.63
818;BME280;391;51.052;6.954;2022-10-16T08:27:08;100995.31;;;16.21;82.41
818;BME280;391;51.052;6.954;2022-10-16T08:29:12;100994.38;;;16.18;81.78
818;BME280;391;51.052;6.954;2022-10-16T08:31:16;101001.28;;;16.04;82.04
818;BME280;391;51.052;6.954;2022-10-16T08:33:19;100999.59;;;16.12;82.03
818;BME280;391;51.052;6.954;2022-10-16T08:35:22;101006.72;;;16.20;81.88
818;BME280;391;51.052;6.954;2022-10-16T08:37:30;101013.81;;;16.29;80.85
818;BME280;391;51.052;6.954;2022-10-16T08:39:33;101012.09;;;16.34;81.15
818;BME280;391;51.052;6.954;2022-10-16T08:44:01;101027.03;;;16.35;81.13
818;BME280;391;51.052;6.954;2022-10-16T08:46:25;101021.94;;;16.52;80.71
818;BME280;391;51.052;6.954;2022-10-16T08:48:36;101025.59;;;16.66;80.27
818;BME280;391;51.052;6.954;2022-10-16T08:50:45;101029.13;;;16.69;79.38
818;BME280;391;51.052;6.954;2022-10-16T08:52:50;101037.00;;;16.65;79.36
818;BME280;391;51.052;6.954;2022-10-16T08:54:53;101041.38;;;16.64;79.00
818;BME280;391;51.052;6.954;2022-10-16T08:57:00;101040.56;;;16.70;78.54
818;BME280;391;51.052;6.954;2022-10-16T08:59:10;101050.19;;;16.68;77.83
818;BME280;391;51.052;6.954;2022-10-16T09:01:14;101044.03;;;16.67;77.96
818;BME280;391;51.052;6.954;2022-10-16T09:03:22;101050.34;;;16.84;77.44
818;BME280;391;51.052;6.954;2022-10-16T09:05:32;101042.53;;;16.93;76.79
818;BME280;391;51.052;6.954;2022-10-16T09:07:42;101051.25;;;16.89;75.91
818;BME280;391;51.052;6.954;2022-10-16T09:09:56;101044.31;;;16.99;75.33
818;BME280;391;51.052;6.954;2022-10-16T09:12:03;101046.16;;;17.14;75.44
818;BME280;391;51.052;6.954;2022-10-16T09:14:11;101045.38;;;17.22;74.65
818;BME280;391;51.052;6.954;2022-10-16T09:16:22;101043.63;;;17.23;74.09
818;BME280;391;51.052;6.954;2022-10-16T09:18:28;101054.13;;;17.21;73.69
818;BME280;391;51.052;6.954;2022-10-16T09:20:35;101043.63;;;17.23;73.23
818;BME280;391;51.052;6.954;2022-10-16T09:22:41;101047.97;;;17.18;71.68
818;BME280;391;51.052;6.954;2022-10-16T09:24:44;101044.50;;;17.25;72.09
818;BME280;391;51.052;6.954;2022-10-16T09:26:49;101041.94;;;17.32;71.74
818;BME280;391;51.052;6.954;2022-10-16T09:28:52;101038.44;;;17.39;71.62
818;BME280;391;51.052;6.954;2022-10-16T09:30:56;101044.63;;;17.46;71.80
818;BME280;391;51.052;6.954;2022-10-16T09:32:59;101044.72;;;17.57;70.64
818;BME280;391;51.052;6.954;2022-10-16T09:35:02;101048.19;;;17.53;70.57
818;BME280;391;51.052;6.954;2022-10-16T09:37:08;101050.03;;;17.61;70.41
818;BME280;391;51.052;6.954;2022-10-16T09:39:12;101056.19;;;17.65;69.61
818;BME280;391;51.052;6.954;2022-10-16T09:41:17;101050.94;;;17.66;69.79
818;BME280;391;51.052;6.954;2022-10-16T09:43:23;101049.28;;;17.97;68.94
818;BME280;391;51.052;6.954;2022-10-16T09:45:29;101054.63;;;18.11;69.38
818;BME280;391;51.052;6.954;2022-10-16T09:47:32;101049.31;;;18.02;68.37
818;BME280;391;51.052;6.954;2022-10-16T09:49:49;101052.91;;;18.23;68.80
818;BME280;391;51.052;6.954;2022-10-16T09:52:02;101056.50;;;18.54;67.95
818;BME280;391;51.052;6.954;2022-10-16T09:54:12;101048.53;;;18.42;67.21
818;BME280;391;51.052;6.954;2022-10-16T09:56:25;101056.53;;;18.56;67.02
818;BME280;391;51.052;6.954;2022-10-16T09:58:30;101060.94;;;18.67;66.00
818;BME280;391;51.052;6.954;2022-10-16T10:00:35;101061.78;;;18.57;65.45
818;BME280;391;51.052;6.954;2022-10-16T10:02:38;101062.72;;;18.82;65.59
818;BME280;391;51.052;6.954;2022-10-16T10:04:41;101066.22;;;19.13;64.64
818;BME280;391;51.052;6.954;2022-10-16T10:06:47;101064.44;;;19.25;64.10
818;BME280;391;51.052;6.954;2022-10-16T10:08:58;101062.69;;;19.18;64.33
818;BME280;391;51.052;6.954;2022-10-16T10:11:02;101059.19;;;19.30;63.52
818;BME280;391;51.052;6.954;2022-10-16T10:13:14;101060.06;;;19.33;62.69
818;BME280;391;51.052;6.954;2022-10-16T10:15:21;101054.75;;;19.26;63.88
818;BME280;391;51.052;6.954;2022-10-16T10:17:26;101060.91;;;19.38;62.65
818;BME280;391;51.052;6.954;2022-10-16T10:19:29;101046.78;;;19.64;62.91
818;BME280;391;51.052;6.954;2022-10-16T10:21:33;101056.38;;;19.90;62.98
818;BME280;391;51.052;6.954;2022-10-16T10:23:36;101057.19;;;20.01;61.20
818;BME280;391;51.052;6.954;2022-10-16T10:25:43;101053.75;;;19.83;61.26
818;BME280;391;51.052;6.954;2022-10-16T10:28:03;101044.94;;;19.79;61.21
818;BME280;391;51.052;6.954;2022-10-16T10:30:10;101048.50;;;19.77;60.81
818;BME280;391;51.052;6.954;2022-10-16T10:32:25;101054.66;;;19.80;61.12
818;BME280;391;51.052;6.954;2022-10-16T10:34:35;101055.56;;;19.70;61.08
818;BME280;391;51.052;6.954;2022-10-16T10:36:42;101057.34;;;19.67;61.45
818;BME280;391;51.052;6.954;2022-10-16T10:38:49;101047.66;;;19.61;60.96
818;BME280;391;51.052;6.954;2022-10-16T10:40:55;101054.72;;;19.53;61.60
818;BME280;391;51.052;6.954;2022-10-16T10:43:04;101067.09;;;19.39;61.66
818;BME280;391;51.052;6.954;2022-10-16T10:45:16;101066.22;;;19.52;62.21
818;BME280;391;51.052;6.954;2022-10-16T10:47:23;101066.13;;;19.81;62.39
818;BME280;391;51.052;6.954;2022-10-16T10:49:34;101068.59;;;20.29;60.25
818;BME280;391;51.052;6.954;2022-10-16T10:51:49;101063.25;;;20.23;59.18
818;BME280;391;51.052;6.954;2022-10-16T10:54:00;101065.91;;;20.25;59.78
818;BME280;391;51.052;6.954;2022-10-16T10:56:09;101063.28;;;20.25;58.85
818;BME280;391;51.052;6.954;2022-10-16T10:58:31;101062.38;;;20.30;58.40
818;BME280;391;51.052;6.954;2022-10-16T11:00:42;101065.00;;;20.33;57.67
818;BME280;391;51.052;6.954;2022-10-16T11:02:48;101070.25;;;20.48;58.25
818;BME280;391;51.052;6.954;2022-10-16T11:05:00;101068.34;;;20.66;58.55
818;BME280;391;51.052;6.954;2022-10-16T11:07:08;101064.72;;;20.77;55.67
818;BME280;391;51.052;6.954;2022-10-16T11:09:15;101062.75;;;21.00;55.02
818;BME280;391;51.052;6.954;2022-10-16T11:11:20;101074.53;;;20.65;55.90
818;BME280;391;51.052;6.954;2022-10-16T11:13:28;101073.47;;;20.87;56.88
818;BME280;391;51.052;6.954;2022-10-16T11:15:34;101077.72;;;21.15;54.31
818;BME280;391;51.052;6.954;2022-10-16T11:17:39;101082.94;;;21.24;53.61
818;BME280;391;51.052;6.954;2022-10-16T11:19:44;101076.34;;;21.61;53.01
818;BME280;391;51.052;6.954;2022-10-16T11:21:53;101076.09;;;21.84;52.44
818;BME280;391;51.052;6.954;2022-10-16T11:24:00;101072.13;;;22.20;51.36
818;BME280;391;51.052;6.954;2022-10-16T11:26:09;101086.00;;;22.40;50.68
818;BME280;391;51.052;6.954;2022-10-16T11:28:15;101080.28;;;22.05;50.64
818;BME280;391;51.052;6.954;2022-10-16T11:30:25;101081.06;;;21.34;53.34
818;BME280;391;51.052;6.954;2022-10-16T11:32:30;101088.56;;;21.76;52.17